Wooster, OH (44691)

6:20 PM EDT on April 19, 2015 (GMT -0400)
Silver Rd - Wooster, OH | | Change Station
CLOSE
Current Station
Personal Weather Station
Location: Wooster, OH
Elevation: 971 ft
Nearby Weather Stations

Elev 971 ft 40.81 °N, 82.00 °W | Updated 7 minutes ago

Overcast
Overcast
62.9 °F
Feels Like 62.9 °F
N
1.7
Wind Variable Wind from North

Today
High -- | Low -- °F
--% Chance of Precip.
Yesterday
High -- | Low -- °F
Precip. -- in
6:43 AM 8:11 PM
New Moon, 2% visible
Pressure 29.73 in
Visibility 10.0 miles
Clouds Few 4100 ft
Mostly Cloudy 6500 ft
Overcast 10000 ft
Dew Point 50 °F
Humidity 63%
Rainfall -999.00 in
Snow Depth Not available.
UV 1 out of 12
Pollen 10.00 out of 12
Air Quality Not available.
Flu Activity Regional
METAR KBJJ 192156Z AUTO 13019G27KT 10SM FEW041 BKN065 OVC100 17/09 A2973 RMK AO2 PK WND 14027/2154 RAE52 SLP066 P0000 T01670089 TSNO

More Conditions Fewer Conditions

Pressure 29.73 in
Visibility 10.0 miles
Clouds Few 4100 ft
Mostly Cloudy 6500 ft
Overcast 10000 ft
Dew Point 50 °F
Humidity 63%
Rainfall -999.00 in
Snow Depth Not available.
UV 1 out of 12
Pollen 10.00 out of 12
Air Quality Not available.
Flu Activity Regional
METAR KBJJ 192156Z AUTO 13019G27KT 10SM FEW041 BKN065 OVC100 17/09 A2973 RMK AO2 PK WND 14027/2154 RAE52 SLP066 P0000 T01670089 TSNO

More Conditions Fewer Conditions

10-Day Weather Forecast

Almanac

Astronomy

Apr. 19, 2015 Rise Set
Actual Time
Civil Twilight
Nautical Twilight
Astronomical Twilight
Moon
Length of Visible Light
Length of Day
Tomorrow will be .
, % of the Moon is Illuminated

Today's Extremes

State Highs State Lows

Community

WunderPhotos

Upload Photos

1,815,006 photos uploaded!

WunderBlogs® & News

Nearby

Air Quality

  Air Quality AQ Index Pollutant
Not available.

Snow Depth

Station Depth Elevation

Earthquake Activity

City Distance Mag. Time & Date
Minimum magnitude displayed is 2.5.

Coastal Water Temperatures

Place Temperature

Stations

Nearby Weather Stations

Station Location Temp. Windchill Dew Point Humidity Wind Precip. Elev Updated Type